createdAt,value
2023-05-21T00:00:57.971Z,16.90
2023-05-21T00:06:01.728Z,17.00
2023-05-21T00:11:04.659Z,16.90
2023-05-21T00:16:07.743Z,16.80
2023-05-21T00:21:10.245Z,16.90
2023-05-21T00:26:12.682Z,16.70
2023-05-21T00:31:17.831Z,16.90
2023-05-21T00:36:24.203Z,16.70
2023-05-21T00:41:26.706Z,16.70
2023-05-21T00:46:29.178Z,16.60
2023-05-21T00:51:32.146Z,16.50
2023-05-21T00:56:34.748Z,16.30
2023-05-21T01:01:37.358Z,16.50
2023-05-21T01:06:40.124Z,16.30
2023-05-21T01:11:48.928Z,16.20
2023-05-21T01:16:52.737Z,16.30
2023-05-21T01:22:07.463Z,16.10
2023-05-21T01:27:10.917Z,16.10
2023-05-21T01:32:38.580Z,16.00
2023-05-21T01:37:48.576Z,16.10
2023-05-21T01:42:52.435Z,16.00
2023-05-21T01:47:56.629Z,15.90
2023-05-21T01:53:01.386Z,15.70
2023-05-21T01:58:04.286Z,15.80
2023-05-21T02:09:38.980Z,15.70
2023-05-21T02:14:41.673Z,15.70
2023-05-21T02:19:47.078Z,15.80
2023-05-21T02:24:49.494Z,15.70
2023-05-21T02:29:52.004Z,15.60
2023-05-21T02:34:54.471Z,15.60
2023-05-21T02:39:57.029Z,15.60
2023-05-21T02:45:00.093Z,15.50
2023-05-21T02:50:02.739Z,15.60
2023-05-21T02:55:07.728Z,15.20
2023-05-21T03:00:11.592Z,15.00
2023-05-21T03:05:15.381Z,14.90
2023-05-21T03:10:17.825Z,14.90
2023-05-21T03:15:24.292Z,15.10
2023-05-21T03:20:28.153Z,15.20
2023-05-21T03:25:31.221Z,15.30
2023-05-21T03:30:33.685Z,15.30
2023-05-21T03:36:01.887Z,15.30
2023-05-21T03:41:08.894Z,15.60
2023-05-21T03:46:11.933Z,15.40
2023-05-21T03:51:24.647Z,15.60
2023-05-21T03:56:27.983Z,15.50
2023-05-21T04:01:30.739Z,15.60
2023-05-21T04:06:33.346Z,15.60
2023-05-21T04:11:35.917Z,15.50
2023-05-21T04:16:39.456Z,15.90
2023-05-21T04:21:42.155Z,15.90
2023-05-21T04:26:46.193Z,15.90
2023-05-21T04:31:49.765Z,16.00
2023-05-21T04:36:52.637Z,16.00
2023-05-21T04:41:56.654Z,16.40
2023-05-21T04:47:02.315Z,16.40
2023-05-21T04:52:05.187Z,16.50
2023-05-21T04:57:08.950Z,16.60
2023-05-21T05:02:11.485Z,16.60
2023-05-21T05:07:15.687Z,16.80
2023-05-21T05:12:18.191Z,16.90
2023-05-21T05:17:20.744Z,17.00
2023-05-21T05:22:23.253Z,17.10
2023-05-21T05:27:26.813Z,17.30
2023-05-21T05:32:29.404Z,17.40
2023-05-21T05:37:33.633Z,17.60
2023-05-21T05:42:36.291Z,17.70
2023-05-21T05:47:46.369Z,17.80
2023-05-21T05:52:49.419Z,18.00
2023-05-21T05:57:52.431Z,18.10
2023-05-21T06:02:55.081Z,18.30
2023-05-21T06:07:57.854Z,18.40
2023-05-21T06:13:00.752Z,18.40
2023-05-21T06:18:03.343Z,18.50
2023-05-21T06:23:07.383Z,18.70
2023-05-21T06:28:09.981Z,18.90
2023-05-21T06:33:13.894Z,19.00
2023-05-21T06:38:16.465Z,19.30
2023-05-21T06:43:18.989Z,19.30
2023-05-21T06:48:39.978Z,19.30
2023-05-21T06:53:42.514Z,19.50
2023-05-21T06:58:45.759Z,19.70
2023-05-21T07:03:48.799Z,19.80
2023-05-21T07:08:51.808Z,20.10
2023-05-21T07:13:55.279Z,20.30
2023-05-21T07:18:58.700Z,20.40
2023-05-21T07:24:01.252Z,20.50
2023-05-21T07:29:03.860Z,20.60
2023-05-21T07:34:06.527Z,20.90
2023-05-21T07:39:09.142Z,21.00
2023-05-21T07:44:13.168Z,21.30
2023-05-21T07:49:18.335Z,21.30
2023-05-21T07:54:23.461Z,21.50
2023-05-21T07:59:29.967Z,21.80
2023-05-21T08:04:32.688Z,21.90
2023-05-21T08:09:35.573Z,22.00
2023-05-21T08:14:38.215Z,22.20
2023-05-21T08:19:42.050Z,22.40
2023-05-21T08:24:45.816Z,22.50
2023-05-21T08:29:48.277Z,22.70
2023-05-21T08:34:51.108Z,22.90
2023-05-21T08:40:06.490Z,23.00
2023-05-21T08:45:15.231Z,23.10
2023-05-21T08:50:19.532Z,23.40
2023-05-21T08:55:27.042Z,23.40
2023-05-21T09:00:30.437Z,23.70
2023-05-21T09:05:39.399Z,24.10
2023-05-21T09:10:50.895Z,24.30
2023-05-21T09:15:55.449Z,24.50
2023-05-21T09:21:23.965Z,24.60
2023-05-21T09:26:26.832Z,24.70
2023-05-21T09:31:33.639Z,24.70
2023-05-21T09:36:38.513Z,24.80
2023-05-21T09:41:42.668Z,24.90
2023-05-21T09:46:45.191Z,24.90
2023-05-21T09:51:47.889Z,25.00
2023-05-21T09:56:53.037Z,25.10
2023-05-21T10:01:56.190Z,25.20
2023-05-21T10:06:59.983Z,25.50
2023-05-21T10:12:02.775Z,25.70
2023-05-21T10:17:07.583Z,25.90
2023-05-21T10:22:10.202Z,25.90
2023-05-21T10:27:14.072Z,26.20
2023-05-21T10:32:17.065Z,26.70
2023-05-21T10:37:23.604Z,27.10
2023-05-21T10:42:32.168Z,27.30
2023-05-21T10:47:49.104Z,27.50
2023-05-21T10:53:09.926Z,28.00
2023-05-21T10:58:52.184Z,28.10
2023-05-21T11:03:56.106Z,28.50
2023-05-21T11:09:14.610Z,28.90
2023-05-21T11:14:26.519Z,29.20
2023-05-21T11:19:41.413Z,29.40
2023-05-21T11:24:44.181Z,29.60
2023-05-21T11:29:47.306Z,29.80
2023-05-21T11:34:50.264Z,29.80
2023-05-21T11:39:54.095Z,30.20
2023-05-21T11:45:00.512Z,30.80
2023-05-21T11:50:04.225Z,31.00
2023-05-21T11:55:07.481Z,31.80
2023-05-21T12:00:15.318Z,32.30
2023-05-21T12:05:19.152Z,32.70
2023-05-21T12:10:23.141Z,33.00
2023-05-21T12:15:27.224Z,33.30
2023-05-21T12:20:29.830Z,33.20
2023-05-21T12:25:32.418Z,33.40
2023-05-21T12:30:35.153Z,33.90
2023-05-21T12:35:37.873Z,34.00
2023-05-21T12:40:49.118Z,34.50
2023-05-21T12:45:52.054Z,34.40
2023-05-21T12:50:54.543Z,34.80
2023-05-21T12:56:07.068Z,35.30
2023-05-21T13:01:11.160Z,34.80
2023-05-21T13:06:13.946Z,34.70
2023-05-21T13:11:16.665Z,35.00
2023-05-21T13:16:22.222Z,34.80
2023-05-21T13:21:24.760Z,35.10
2023-05-21T13:26:27.338Z,36.20
2023-05-21T13:36:46.406Z,38.20
2023-05-21T13:41:48.899Z,38.50
2023-05-21T13:46:51.468Z,38.60
2023-05-21T13:51:54.054Z,38.40
2023-05-21T13:56:56.702Z,38.00
2023-05-21T14:01:59.268Z,37.40
2023-05-21T14:07:02.163Z,36.20
2023-05-21T14:12:06.608Z,35.90
2023-05-21T14:17:09.265Z,35.60
2023-05-21T14:22:11.757Z,35.50
2023-05-21T14:27:15.455Z,36.00
2023-05-21T14:32:19.284Z,36.30
2023-05-21T14:37:21.803Z,36.50
2023-05-21T14:42:24.249Z,37.10
2023-05-21T14:47:27.018Z,38.10
2023-05-21T14:52:29.561Z,37.70
2023-05-21T14:57:32.026Z,37.40
2023-05-21T15:02:34.692Z,37.80
2023-05-21T15:07:37.523Z,38.70
2023-05-21T15:12:40.866Z,39.80
2023-05-21T15:17:44.105Z,39.50
2023-05-21T15:22:47.945Z,39.90
2023-05-21T15:27:50.739Z,40.30
2023-05-21T15:32:53.854Z,40.20
2023-05-21T15:37:56.304Z,40.40
2023-05-21T15:42:58.807Z,40.70
2023-05-21T15:48:01.287Z,40.70
2023-05-21T15:53:04.732Z,41.20
2023-05-21T15:58:07.287Z,41.50
2023-05-21T16:03:09.805Z,41.40
2023-05-21T16:08:12.938Z,40.80
2023-05-21T16:13:15.511Z,39.70
2023-05-21T16:18:17.924Z,38.20
2023-05-21T16:23:20.354Z,36.50
2023-05-21T16:28:24.393Z,35.50
2023-05-21T16:33:26.824Z,34.50
2023-05-21T16:38:29.236Z,33.40
2023-05-21T16:43:31.746Z,32.60
2023-05-21T16:48:35.124Z,32.10
2023-05-21T16:53:39.138Z,31.90
2023-05-21T16:58:41.574Z,31.90
2023-05-21T17:03:44.161Z,31.50
2023-05-21T17:08:47.616Z,31.00
2023-05-21T17:13:50.025Z,30.90
2023-05-21T17:18:52.536Z,31.00
2023-05-21T17:23:55.012Z,30.50
2023-05-21T17:28:57.371Z,29.60
2023-05-21T17:34:00.425Z,28.90
2023-05-21T17:39:03.096Z,28.30
2023-05-21T17:44:05.707Z,27.60
2023-05-21T17:49:08.387Z,27.20
2023-05-21T17:54:11.213Z,26.70
2023-05-21T17:59:14.512Z,26.40
2023-05-21T18:04:17.076Z,26.10
2023-05-21T18:09:20.017Z,26.10
2023-05-21T18:14:22.742Z,25.80
2023-05-21T18:19:25.210Z,25.40
2023-05-21T18:24:28.092Z,25.10
2023-05-21T18:29:30.973Z,24.70
2023-05-21T18:34:33.446Z,24.20
2023-05-21T18:39:36.068Z,23.90
2023-05-21T18:44:38.702Z,23.60
2023-05-21T18:49:41.071Z,23.20
2023-05-21T18:54:43.516Z,22.90
2023-05-21T18:59:45.872Z,22.60
2023-05-21T19:04:49.057Z,22.10
2023-05-21T19:09:53.332Z,21.60
2023-05-21T19:14:55.729Z,21.60
2023-05-21T19:19:58.434Z,21.40
2023-05-21T19:25:00.883Z,20.80
2023-05-21T19:30:03.371Z,20.60
2023-05-21T19:35:06.470Z,20.30
2023-05-21T19:40:09.566Z,20.20
2023-05-21T19:45:13.263Z,20.40
2023-05-21T19:50:15.727Z,20.30
2023-05-21T19:55:20.108Z,20.40
2023-05-21T20:00:22.596Z,20.30
2023-05-21T20:05:24.972Z,20.30
2023-05-21T20:10:28.169Z,20.10
2023-05-21T20:15:30.572Z,20.20
2023-05-21T20:20:36.862Z,20.20
2023-05-21T20:25:39.722Z,20.00
2023-05-21T20:30:58.612Z,19.70
2023-05-21T20:36:01.702Z,19.60
2023-05-21T20:41:05.003Z,19.60
2023-05-21T20:46:07.756Z,19.30
2023-05-21T20:51:10.454Z,19.20
2023-05-21T20:56:14.703Z,19.30
2023-05-21T21:01:17.803Z,19.10
2023-05-21T21:06:20.919Z,19.00
2023-05-21T21:11:24.328Z,18.90
2023-05-21T21:16:26.779Z,18.70
2023-05-21T21:21:29.290Z,18.40
2023-05-21T21:26:31.757Z,18.30
2023-05-21T21:31:34.176Z,18.30
2023-05-21T21:36:37.023Z,18.30
2023-05-21T21:41:41.140Z,18.30
2023-05-21T21:46:43.502Z,18.10
2023-05-21T21:51:45.969Z,18.00
2023-05-21T21:56:48.412Z,18.00
2023-05-21T22:01:50.977Z,18.00
2023-05-21T22:06:53.722Z,17.90
2023-05-21T22:11:56.833Z,17.70
2023-05-21T22:16:59.222Z,17.60
2023-05-21T22:22:04.039Z,17.40
2023-05-21T22:27:07.097Z,17.30
2023-05-21T22:32:09.443Z,17.20
2023-05-21T22:37:12.345Z,17.30
2023-05-21T22:42:14.811Z,17.40
2023-05-21T22:47:17.289Z,17.30
2023-05-21T22:52:23.598Z,17.40
2023-05-21T22:57:26.059Z,17.10
2023-05-21T23:02:29.254Z,16.70
2023-05-21T23:07:31.697Z,16.40
2023-05-21T23:12:34.793Z,16.20
2023-05-21T23:17:37.989Z,16.10
2023-05-21T23:22:40.514Z,16.00
2023-05-21T23:27:42.904Z,15.80
2023-05-21T23:32:45.368Z,15.60
2023-05-21T23:37:48.047Z,15.60
2023-05-21T23:42:50.392Z,15.70
2023-05-21T23:47:52.941Z,16.10
2023-05-21T23:52:55.671Z,16.10
2023-05-21T23:57:58.039Z,16.20
